Beila, Mauritania
Current Conditions -  °F | °C
As of 9:30 PM on Friday 19 Dec 2014 (Local Time) from GQNN Reporting Station
Sand / Dust Storm Sand / Dust Storm  
Wind Chill: 72°   Ceiling: Unl
Heat Index: 72°   Visibility: 1.8mi
Dew Point: 27°   Wind: 8mph
Humidity: 19%   Direction: 60°ENE
Pressure: 30.06"   Gusts: NA
Location:  18.17°N, 15.87°W
Report Text: GQNN 192130Z 06007KT 3000 BLDU NSC 22/M03 Q1018 NOSIG
Loading
Personal Weather Stations






























Interactive Weather Map New forecast layout! Learn more

10-Day Weather Forecast

Advertisements
Track Severe Weather on mobile